Time;durP1;ratioP1;P1;durP2;ratioP2;P2;SDS_P1;SDS_P2;PMS_P1;PMS_P2;Temp;Humidity;BMP_temperature;BMP_pressure;BME280_temperature;BME280_humidity;BME280_pressure;Samples;Min_cycle;Max_cycle;Signal;HPM_P1;HPM_P2
2022/09/19 00:00:16;;;;;;;3.65;1.00;;;11.70;99.90;;;;;;5013951;28;20395;-64
2022/09/19 00:02:42;;;;;;;7.85;1.33;;;11.60;99.90;;;;;;5048501;28;20227;-63
2022/09/19 00:05:09;;;;;;;4.93;1.13;;;11.50;99.90;;;;;;5015435;28;20464;-63
2022/09/19 00:07:36;;;;;;;2.67;0.57;;;11.30;99.90;;;;;;5036971;28;20620;-64
2022/09/19 00:10:05;;;;;;;2.20;1.08;;;11.50;99.90;;;;;;5037535;28;20205;-64
2022/09/19 00:12:33;;;;;;;2.88;1.27;;;11.60;99.90;;;;;;5040816;28;20192;-64
2022/09/19 00:15:01;;;;;;;1.90;0.82;;;11.30;99.90;;;;;;5010747;28;20681;-64
2022/09/19 00:17:28;;;;;;;2.15;0.60;;;11.30;99.90;;;;;;5040330;28;20207;-63
2022/09/19 00:19:55;;;;;;;2.05;0.50;;;;;;;;;;5021493;28;20201;-64
2022/09/19 00:22:22;;;;;;;6.97;1.95;;;11.40;99.90;;;;;;5030191;28;20349;-64
2022/09/19 00:24:49;;;;;;;4.60;0.85;;;11.50;99.90;;;;;;5044810;28;20192;-64
2022/09/19 00:27:19;;;;;;;4.07;0.82;;;10.60;99.90;;;;;;5041082;28;20200;-63
2022/09/19 00:29:46;;;;;;;6.47;0.98;;;11.50;99.90;;;;;;5016481;28;20201;-63
2022/09/19 00:32:14;;;;;;;1.60;0.90;;;11.40;99.90;;;;;;5041065;28;20196;-64
2022/09/19 00:34:43;;;;;;;3.72;0.75;;;11.60;99.90;;;;;;5048541;28;20217;-64
2022/09/19 00:37:10;;;;;;;3.78;0.88;;;15.00;99.90;;;;;;5012433;28;20200;-64
2022/09/19 00:39:37;;;;;;;3.13;1.00;;;11.80;99.90;;;;;;5042767;28;20224;-64
2022/09/19 00:42:05;;;;;;;7.82;1.23;;;12.40;99.90;;;;;;5038060;28;20653;-64
2022/09/19 00:44:57;;;;;;;6.32;1.15;;;12.00;99.90;;;;;;5048190;28;20204;-64
2022/09/19 00:47:33;;;;;;;2.92;0.73;;;12.00;99.90;;;;;;5025650;28;21057;-64
2022/09/19 00:50:02;;;;;;;3.45;0.82;;;;;;;;;;5027780;28;20199;-65
2022/09/19 00:52:38;;;;;;;6.85;1.55;;;12.40;99.90;;;;;;5032680;28;20204;-64
2022/09/19 00:55:05;;;;;;;3.00;0.70;;;12.40;99.90;;;;;;5032881;28;20197;-64
2022/09/19 00:57:42;;;;;;;5.78;1.05;;;12.50;99.90;;;;;;5042358;28;20204;-64
2022/09/19 01:00:10;;;;;;;3.28;0.75;;;12.60;99.90;;;;;;5043474;28;20704;-64
2022/09/19 01:02:40;;;;;;;4.00;1.00;;;12.70;99.90;;;;;;5020260;28;20312;-65
2022/09/19 01:05:08;;;;;;;3.17;1.33;;;12.80;99.90;;;;;;5045946;28;20579;-64
2022/09/19 01:07:56;;;;;;;4.28;0.90;;;12.80;99.90;;;;;;5032132;28;20204;-63
2022/09/19 01:10:37;;;;;;;3.45;1.10;;;12.80;99.90;;;;;;5032905;28;20211;-64
2022/09/19 01:13:12;;;;;;;3.35;0.80;;;12.80;99.90;;;;;;5044834;28;20679;-64
2022/09/19 01:15:51;;;;;;;3.92;0.90;;;12.80;99.90;;;;;;5045725;28;20208;-64
2022/09/19 01:18:24;;;;;;;3.15;0.90;;;12.80;99.90;;;;;;5020376;28;20209;-64
2022/09/19 01:24:32;;;;;;;4.82;0.88;;;12.90;99.90;;;;;;5033604;28;20264;-64
2022/09/19 01:27:33;;;;;;;1.90;0.70;;;13.00;99.90;;;;;;5032970;28;20200;-63
2022/09/19 01:30:04;;;;;;;6.78;1.05;;;12.90;99.90;;;;;;4994265;28;20203;-63
2022/09/19 01:32:37;;;;;;;4.00;0.93;;;12.90;99.90;;;;;;5023018;28;20204;-63
2022/09/19 01:35:08;;;;;;;2.92;0.68;;;13.00;99.90;;;;;;5043053;28;20433;-64
2022/09/19 01:37:41;;;;;;;4.68;1.10;;;13.00;99.90;;;;;;5030454;28;20192;-64
2022/09/19 01:40:11;;;;;;;6.75;1.33;;;12.90;99.90;;;;;;5028581;28;21048;-64
2022/09/19 01:42:54;;;;;;;5.13;1.00;;;12.90;99.90;;;;;;5041033;28;20224;-64
2022/09/19 01:45:25;;;;;;;2.60;0.80;;;12.90;99.90;;;;;;5044174;28;20418;-64
2022/09/19 01:48:01;;;;;;;3.75;0.93;;;12.90;99.90;;;;;;5017722;28;20201;-64
2022/09/19 01:50:37;;;;;;;4.40;1.30;;;12.90;99.90;;;;;;5047141;28;20193;-64
2022/09/19 01:53:10;;;;;;;2.15;0.70;;;13.00;99.90;;;;;;5031786;28;20205;-64
2022/09/19 01:55:44;;;;;;;6.90;1.05;;;13.00;99.90;;;;;;5039860;28;20208;-64
2022/09/19 01:58:18;;;;;;;2.67;1.08;;;13.00;99.90;;;;;;5036211;28;20204;-64
2022/09/19 02:00:54;;;;;;;3.45;0.95;;;13.00;99.90;;;;;;5049503;28;20294;-63
2022/09/19 02:03:36;;;;;;;6.57;2.15;;;13.10;99.90;;;;;;5018587;28;20224;-64
2022/09/19 02:06:10;;;;;;;3.60;0.60;;;13.10;99.90;;;;;;5051312;28;20208;-64
2022/09/19 02:08:45;;;;;;;3.22;0.80;;;13.10;99.90;;;;;;5029882;28;20196;-64
2022/09/19 02:11:16;;;;;;;2.92;1.15;;;13.10;99.90;;;;;;5035093;28;20215;-64
2022/09/19 02:13:48;;;;;;;4.15;0.93;;;13.10;99.90;;;;;;5046374;28;20670;-64
2022/09/19 02:16:19;;;;;;;3.70;1.20;;;13.10;99.90;;;;;;5048319;28;20282;-65
2022/09/19 02:18:53;;;;;;;7.93;0.85;;;13.30;99.90;;;;;;5022965;28;20257;-64
2022/09/19 02:21:25;;;;;;;1.80;0.95;;;13.10;99.90;;;;;;5047549;28;20225;-64
2022/09/19 02:23:59;;;;;;;8.52;1.20;;;13.00;99.90;;;;;;5035766;28;20232;-64
2022/09/19 02:26:26;;;;;;;5.55;1.17;;;13.10;99.90;;;;;;5036171;28;20211;-64
2022/09/19 02:28:57;;;;;;;3.85;0.90;;;13.10;99.90;;;;;;5033786;28;20207;-64
2022/09/19 02:31:27;;;;;;;7.82;1.23;;;13.00;99.90;;;;;;5041972;28;20212;-64
2022/09/19 02:33:56;;;;;;;6.45;1.02;;;13.10;99.90;;;;;;5009736;28;20201;-64
2022/09/19 02:36:30;;;;;;;6.68;1.20;;;13.00;99.90;;;;;;5039254;28;20231;-65
2022/09/19 02:39:02;;;;;;;1.75;0.60;;;13.20;99.90;;;;;;5035397;28;20988;-64
2022/09/19 02:41:36;;;;;;;8.23;1.23;;;12.90;99.90;;;;;;5033271;28;20252;-64
2022/09/19 02:44:13;;;;;;;3.60;1.05;;;13.10;99.90;;;;;;5040026;28;20827;-63
2022/09/19 02:46:49;;;;;;;3.60;0.90;;;12.00;99.90;;;;;;5036922;28;20340;-64
2022/09/19 02:49:22;;;;;;;7.80;1.08;;;12.90;99.90;;;;;;4987317;28;20228;-64
2022/09/19 02:51:54;;;;;;;4.45;1.15;;;12.80;99.90;;;;;;5014807;28;20674;-64
2022/09/19 02:54:26;;;;;;;3.90;1.20;;;14.90;99.90;;;;;;5017986;28;20285;-64
2022/09/19 02:56:58;;;;;;;6.93;1.30;;;12.80;99.90;;;;;;5036317;28;20197;-64
2022/09/19 02:59:29;;;;;;;8.07;1.10;;;12.70;99.90;;;;;;5034240;28;20212;-65
2022/09/19 03:02:01;;;;;;;3.63;1.05;;;12.70;99.90;;;;;;5040301;28;21444;-64
2022/09/19 03:04:33;;;;;;;5.15;0.80;;;12.50;99.90;;;;;;5012985;28;20205;-64
2022/09/19 03:07:06;;;;;;;7.47;1.23;;;12.60;99.90;;;;;;5031406;28;20212;-64
2022/09/19 03:09:33;;;;;;;4.57;1.02;;;12.70;99.90;;;;;;5029126;28;20204;-64
2022/09/19 03:12:05;;;;;;;5.78;1.08;;;12.60;99.90;;;;;;5031174;28;21000;-65
2022/09/19 03:14:33;;;;;;;7.32;1.15;;;12.70;99.90;;;;;;5037355;28;20189;-65
2022/09/19 03:17:03;;;;;;;6.22;1.52;;;12.60;99.90;;;;;;5025351;28;20677;-64
2022/09/19 03:19:32;;;;;;;3.40;0.73;;;12.50;99.90;;;;;;5014621;28;20204;-64
2022/09/19 03:21:59;;;;;;;4.15;1.00;;;12.40;99.90;;;;;;5050021;28;20201;-64
2022/09/19 03:24:27;;;;;;;3.20;0.98;;;11.90;99.90;;;;;;5029238;28;20263;-65
2022/09/19 03:26:53;;;;;;;5.28;1.05;;;12.20;99.90;;;;;;5028787;28;20294;-64
2022/09/19 03:29:20;;;;;;;6.28;1.10;;;12.30;99.90;;;;;;5031735;28;20196;-64
2022/09/19 03:31:50;;;;;;;4.65;1.20;;;9.30;99.90;;;;;;5024496;28;23441;-64
2022/09/19 03:34:18;;;;;;;3.72;1.08;;;12.10;99.90;;;;;;5008653;28;20213;-64
2022/09/19 03:36:45;;;;;;;2.58;1.05;;;12.10;99.90;;;;;;5029121;28;20217;-64
2022/09/19 03:39:12;;;;;;;4.53;1.27;;;12.10;99.90;;;;;;5043525;28;20199;-64
2022/09/19 03:41:39;;;;;;;5.22;1.02;;;12.10;99.90;;;;;;5024799;28;20232;-65
2022/09/19 03:44:06;;;;;;;3.67;1.30;;;12.00;99.90;;;;;;5031366;28;20231;-64
2022/09/19 03:46:35;;;;;;;4.95;1.27;;;11.70;99.90;;;;;;5010707;22;20236;-63
2022/09/19 03:49:02;;;;;;;3.80;0.80;;;11.80;99.90;;;;;;4990738;28;20791;-64
2022/09/19 03:51:32;;;;;;;5.15;1.33;;;12.10;99.90;;;;;;5008348;28;20640;-64
2022/09/19 03:53:59;;;;;;;4.00;1.17;;;15.10;99.90;;;;;;5027409;28;20321;-64
2022/09/19 03:56:26;;;;;;;2.72;1.17;;;11.80;99.90;;;;;;4997140;28;20212;-64
2022/09/19 03:58:53;;;;;;;7.05;1.48;;;11.50;99.90;;;;;;5016380;28;20208;-64
2022/09/19 04:01:20;;;;;;;6.90;1.00;;;11.70;99.90;;;;;;5017822;28;20204;-64
2022/09/19 04:03:47;;;;;;;2.17;1.05;;;;;;;;;;4998746;28;20225;-64
2022/09/19 04:06:14;;;;;;;1.30;0.88;;;12.80;99.90;;;;;;5029967;28;20666;-64
2022/09/19 04:08:42;;;;;;;6.03;1.25;;;11.50;99.90;;;;;;5016195;28;21214;-64
2022/09/19 04:11:09;;;;;;;3.33;1.17;;;11.50;99.90;;;;;;5028864;28;20205;-65
2022/09/19 04:13:37;;;;;;;3.35;1.40;;;11.30;99.90;;;;;;5008025;28;20200;-64
2022/09/19 04:16:05;;;;;;;16.52;1.67;;;11.40;99.90;;;;;;5033226;28;20600;-63
2022/09/19 04:18:32;;;;;;;6.32;1.42;;;11.40;99.90;;;;;;5011911;28;20197;-64
2022/09/19 04:20:59;;;;;;;2.33;1.42;;;11.20;99.90;;;;;;5007946;28;20230;-64
2022/09/19 04:23:26;;;;;;;3.20;1.05;;;11.40;99.90;;;;;;5028073;28;20262;-64
2022/09/19 04:25:55;;;;;;;2.78;1.10;;;11.40;99.90;;;;;;5004314;28;20475;-64
2022/09/19 04:28:23;;;;;;;5.35;1.75;;;11.30;99.90;;;;;;5019117;28;20206;-64
2022/09/19 04:30:50;;;;;;;5.90;1.10;;;11.30;99.90;;;;;;5025502;28;20192;-64
2022/09/19 04:33:18;;;;;;;3.03;0.95;;;11.30;99.90;;;;;;5017267;28;20205;-64
2022/09/19 04:35:45;;;;;;;6.65;1.30;;;11.20;99.90;;;;;;5005624;28;20302;-64
2022/09/19 04:38:13;;;;;;;5.38;1.23;;;11.10;99.90;;;;;;5037205;28;20460;-64
2022/09/19 04:40:40;;;;;;;9.20;1.40;;;13.20;99.90;;;;;;5028148;28;20675;-63
2022/09/19 04:43:09;;;;;;;3.78;1.00;;;10.90;99.90;;;;;;5003285;28;20437;-64
2022/09/19 04:45:37;;;;;;;6.20;1.20;;;11.00;99.90;;;;;;5018888;28;20437;-63
2022/09/19 04:48:06;;;;;;;2.25;1.02;;;10.80;99.90;;;;;;5027980;28;20201;-64
2022/09/19 04:50:33;;;;;;;4.70;1.23;;;10.90;99.90;;;;;;4990015;28;20322;-65
2022/09/19 04:53:00;;;;;;;10.60;1.27;;;10.80;99.90;;;;;;5016740;28;20212;-65
2022/09/19 04:55:27;;;;;;;5.03;1.20;;;10.90;99.90;;;;;;5020248;28;20299;-64
2022/09/19 04:57:54;;;;;;;7.88;1.20;;;10.90;99.90;;;;;;5019645;28;21054;-64
2022/09/19 05:03:19;;;;;;;7.45;1.52;;;10.90;99.90;;;;;;5026746;28;20522;-65
2022/09/19 05:08:37;;;;;;;8.32;2.03;;;11.10;99.90;;;;;;5038464;23;20464;-64
2022/09/19 05:11:06;;;;;;;11.02;1.33;;;10.90;99.90;;;;;;5001762;28;20209;-64
2022/09/19 05:13:37;;;;;;;7.85;1.42;;;10.90;99.90;;;;;;4980241;28;20818;-63
2022/09/19 05:16:05;;;;;;;3.42;1.40;;;10.70;99.90;;;;;;4996393;28;22521;-63
2022/09/19 05:18:35;;;;;;;3.72;0.82;;;10.90;99.90;;;;;;5005527;28;20229;-64
2022/09/19 05:21:05;;;;;;;9.48;1.65;;;10.90;99.90;;;;;;5015126;28;20220;-63
2022/09/19 05:23:32;;;;;;;4.65;1.50;;;10.90;99.90;;;;;;4982683;28;20234;-63
2022/09/19 05:26:04;;;;;;;2.05;0.80;;;10.90;99.90;;;;;;5003886;28;20217;-63
2022/09/19 05:28:31;;;;;;;13.85;1.83;;;10.90;99.90;;;;;;4990198;28;20217;-63
2022/09/19 05:30:58;;;;;;;6.05;1.27;;;10.70;99.90;;;;;;4990119;28;20205;-63
2022/09/19 05:33:26;;;;;;;7.82;1.48;;;10.80;99.90;;;;;;5018764;28;20213;-64
2022/09/19 05:35:55;;;;;;;5.75;1.25;;;10.70;99.90;;;;;;5018712;28;20272;-63
2022/09/19 05:38:23;;;;;;;7.75;1.52;;;10.80;99.90;;;;;;4991720;28;20206;-63
2022/09/19 05:40:52;;;;;;;7.93;2.47;;;10.80;99.90;;;;;;5019873;28;20212;-64
2022/09/19 05:43:19;;;;;;;3.27;1.10;;;10.80;99.90;;;;;;5002162;28;20256;-63
2022/09/19 05:45:46;;;;;;;6.50;1.40;;;8.80;99.90;;;;;;4999866;28;20632;-63
2022/09/19 05:48:14;;;;;;;7.30;1.40;;;10.90;99.90;;;;;;5008741;28;20228;-63
2022/09/19 05:50:43;;;;;;;5.28;1.20;;;10.70;99.90;;;;;;5014468;28;20283;-63
2022/09/19 05:55:57;;;;;;;5.95;1.50;;;10.90;99.90;;;;;;5014612;28;20845;-63
2022/09/19 05:58:24;;;;;;;6.22;1.63;;;11.20;99.90;;;;;;5001158;28;20252;-63
2022/09/19 06:00:51;;;;;;;8.00;1.58;;;11.10;99.90;;;;;;4996691;28;20209;-64
2022/09/19 06:03:20;;;;;;;4.38;1.25;;;11.20;99.90;;;;;;4988852;28;20233;-64
2022/09/19 06:05:48;;;;;;;9.20;1.90;;;11.00;99.90;;;;;;5016131;28;20781;-63
2022/09/19 06:08:18;;;;;;;6.80;1.83;;;11.10;99.90;;;;;;5002764;28;20319;-64
2022/09/19 06:10:45;;;;;;;10.02;1.30;;;11.20;99.90;;;;;;4988257;28;20206;-63
2022/09/19 06:13:13;;;;;;;7.68;1.70;;;11.20;99.90;;;;;;5011865;28;20993;-64
2022/09/19 06:15:40;;;;;;;3.03;1.45;;;11.20;99.90;;;;;;4991943;28;20245;-63
2022/09/19 06:18:09;;;;;;;5.75;1.60;;;11.30;99.90;;;;;;4978872;28;20726;-63
2022/09/19 06:20:36;;;;;;;1.95;0.82;;;11.20;99.90;;;;;;5008119;28;20771;-63
2022/09/19 06:23:06;;;;;;;14.32;1.88;;;11.30;99.90;;;;;;5002113;28;20734;-63
2022/09/19 06:25:36;;;;;;;4.63;1.45;;;11.20;99.90;;;;;;4966564;28;20194;-63
2022/09/19 06:28:05;;;;;;;7.45;1.35;;;11.40;99.90;;;;;;4996126;28;20320;-63
2022/09/19 06:30:33;;;;;;;13.55;2.25;;;11.50;99.90;;;;;;4989989;28;20626;-63
2022/09/19 06:33:00;;;;;;;9.07;1.67;;;11.50;99.90;;;;;;4974215;28;20402;-64
2022/09/19 06:35:29;;;;;;;7.45;2.00;;;11.50;99.90;;;;;;5008945;28;20198;-63
2022/09/19 06:37:59;;;;;;;7.05;1.35;;;11.60;99.90;;;;;;5003776;28;20663;-63
2022/09/19 06:40:27;;;;;;;10.45;2.00;;;11.60;99.90;;;;;;4968932;28;20237;-63
2022/09/19 06:43:00;;;;;;;10.75;2.03;;;11.70;99.90;;;;;;5005144;28;20332;-63
2022/09/19 06:45:27;;;;;;;9.55;1.70;;;11.70;99.90;;;;;;4990296;28;20305;-64
2022/09/19 06:47:57;;;;;;;8.13;1.63;;;11.80;99.90;;;;;;4989390;28;20206;-64
2022/09/19 06:50:24;;;;;;;9.43;2.08;;;11.80;99.90;;;;;;4987155;28;20230;-64
2022/09/19 06:52:50;;;;;;;6.75;1.67;;;11.90;99.90;;;;;;5003524;28;20194;-63
2022/09/19 06:55:17;;;;;;;6.45;1.50;;;12.10;99.90;;;;;;4992945;28;20210;-64
2022/09/19 06:57:44;;;;;;;4.63;1.50;;;12.00;99.90;;;;;;4983549;28;20815;-63
2022/09/19 07:00:13;;;;;;;12.35;1.95;;;12.10;99.90;;;;;;5005817;28;20964;-64
2022/09/19 07:02:40;;;;;;;11.27;1.63;;;12.30;99.90;;;;;;4990703;28;20245;-64
2022/09/19 07:05:08;;;;;;;7.97;1.30;;;12.00;99.90;;;;;;4979970;28;20582;-64
2022/09/19 07:07:35;;;;;;;8.80;1.90;;;12.50;99.90;;;;;;5007122;28;20233;-64
2022/09/19 07:10:01;;;;;;;14.85;2.08;;;12.30;99.90;;;;;;4994206;28;20198;-64
2022/09/19 07:12:28;;;;;;;6.32;1.33;;;12.50;99.90;;;;;;4983993;28;20293;-64
2022/09/19 07:14:55;;;;;;;9.98;2.38;;;12.50;99.90;;;;;;5002996;28;20202;-63
2022/09/19 07:17:23;;;;;;;4.55;1.95;;;12.70;99.90;;;;;;4988808;28;20210;-64
2022/09/19 07:19:53;;;;;;;12.63;2.17;;;12.80;99.90;;;;;;4983201;28;20697;-64
2022/09/19 07:22:22;;;;;;;12.93;1.67;;;12.90;99.90;;;;;;5005618;28;20224;-64
2022/09/19 07:24:49;;;;;;;8.65;2.40;;;12.90;99.90;;;;;;4993164;28;20213;-63
2022/09/19 07:27:16;;;;;;;6.70;1.83;;;13.00;99.90;;;;;;4979026;28;20260;-64
2022/09/19 07:29:43;;;;;;;5.45;1.58;;;13.00;99.90;;;;;;5007725;28;20652;-63
2022/09/19 07:32:09;;;;;;;10.77;2.63;;;13.10;99.90;;;;;;5004308;28;20324;-64
2022/09/19 07:34:38;;;;;;;8.93;1.85;;;13.10;99.90;;;;;;4989731;28;20194;-64
2022/09/19 07:37:05;;;;;;;8.50;1.80;;;13.30;99.90;;;;;;4988692;28;20214;-64
2022/09/19 07:39:32;;;;;;;10.80;2.00;;;13.40;99.90;;;;;;5008914;28;20300;-67
2022/09/19 07:41:59;;;;;;;9.75;2.10;;;13.40;99.90;;;;;;4964169;28;20264;-64
2022/09/19 07:44:25;;;;;;;14.88;2.60;;;13.50;99.90;;;;;;5006129;28;20194;-64
2022/09/19 07:49:33;;;;;;;12.90;2.00;;;13.60;99.90;;;;;;4988494;28;20202;-64
2022/09/19 07:52:01;;;;;;;5.38;1.25;;;13.50;99.90;;;;;;4986493;28;20414;-64
2022/09/19 07:54:28;;;;;;;12.13;1.88;;;13.70;99.90;;;;;;5005983;28;20198;-64
2022/09/19 07:56:55;;;;;;;13.95;2.45;;;13.80;99.90;;;;;;4968928;28;20221;-64
2022/09/19 07:59:22;;;;;;;10.73;1.88;;;13.80;99.90;;;;;;5005438;28;20305;-64
2022/09/19 08:01:49;;;;;;;9.88;1.70;;;13.90;99.90;;;;;;5002840;28;20206;-64
2022/09/19 08:04:15;;;;;;;12.32;2.70;;;14.10;99.90;;;;;;5005297;28;20401;-64
2022/09/19 08:06:42;;;;;;;9.48;2.17;;;14.00;99.90;;;;;;4981298;28;20229;-64
2022/09/19 08:09:11;;;;;;;11.48;2.72;;;14.00;99.90;;;;;;4992538;28;21609;-64
2022/09/19 08:11:39;;;;;;;10.77;2.20;;;14.10;99.90;;;;;;4992547;28;20742;-64
2022/09/19 08:14:06;;;;;;;8.93;2.45;;;14.10;99.90;;;;;;4981537;28;20840;-65
2022/09/19 08:16:33;;;;;;;13.10;2.60;;;14.20;99.90;;;;;;5003374;28;20206;-64
2022/09/19 08:19:00;;;;;;;14.30;2.55;;;14.30;99.90;;;;;;5003942;28;20197;-64
2022/09/19 08:21:27;;;;;;;15.73;2.38;;;14.30;99.90;;;;;;4990301;28;20206;-65
2022/09/19 08:23:53;;;;;;;13.27;2.05;;;14.30;99.90;;;;;;4987653;28;20718;-65
2022/09/19 08:26:22;;;;;;;13.13;2.25;;;14.40;99.90;;;;;;4998524;28;20201;-64
2022/09/19 08:28:50;;;;;;;9.13;2.40;;;14.40;99.90;;;;;;4975855;28;20256;-64
2022/09/19 08:31:17;;;;;;;13.05;2.15;;;14.40;99.90;;;;;;5006135;28;20195;-64
2022/09/19 08:33:44;;;;;;;11.73;2.42;;;15.30;99.90;;;;;;5005485;28;20198;-64
2022/09/19 08:36:12;;;;;;;18.20;3.30;;;14.60;99.90;;;;;;4988214;28;20524;-64
2022/09/19 08:38:39;;;;;;;9.07;1.80;;;14.50;99.90;;;;;;4989547;28;20218;-63
2022/09/19 08:41:23;;;;;;;6.25;1.63;;;14.70;99.90;;;;;;5003529;28;20198;-63
2022/09/19 08:43:57;;;;;;;9.93;2.10;;;15.10;99.90;;;;;;4985956;28;21029;-65
2022/09/19 08:46:33;;;;;;;8.85;1.98;;;14.70;99.90;;;;;;5004922;28;20225;-64
2022/09/19 08:49:04;;;;;;;15.18;2.15;;;14.70;99.90;;;;;;5004917;28;20214;-64
2022/09/19 08:51:36;;;;;;;11.20;2.47;;;14.00;99.90;;;;;;5002157;28;20217;-65
2022/09/19 08:54:11;;;;;;;9.13;2.10;;;14.40;99.90;;;;;;4989927;28;20835;-64
2022/09/19 08:56:39;;;;;;;16.52;2.90;;;14.30;99.90;;;;;;5004723;28;20216;-64
2022/09/19 08:59:13;;;;;;;10.63;1.95;;;14.30;99.90;;;;;;5009511;28;20210;-64
2022/09/19 09:01:40;;;;;;;8.05;2.13;;;14.30;99.90;;;;;;4978137;28;20226;-64
2022/09/19 09:04:25;;;;;;;12.80;2.10;;;14.70;99.90;;;;;;5009083;28;20230;-65
2022/09/19 09:07:20;;;;;;;10.20;2.13;;;14.70;99.90;;;;;;4987716;28;20718;-65
2022/09/19 09:10:02;;;;;;;12.13;2.42;;;15.00;99.90;;;;;;4984969;28;20229;-65
2022/09/19 09:12:40;;;;;;;9.55;2.28;;;15.00;99.90;;;;;;4992179;28;20240;-65
2022/09/19 09:15:21;;;;;;;14.82;2.17;;;15.20;99.90;;;;;;4990983;28;20232;-65
2022/09/19 09:18:00;;;;;;;5.13;1.20;;;14.70;99.90;;;;;;4988824;28;20206;-64
2022/09/19 09:20:39;;;;;;;11.40;2.40;;;14.50;99.90;;;;;;4995483;28;20415;-65
2022/09/19 09:23:11;;;;;;;7.82;2.10;;;14.30;99.90;;;;;;4976611;28;20238;-65
2022/09/19 09:25:42;;;;;;;7.53;1.63;;;13.90;99.90;;;;;;4999978;28;20802;-65
2022/09/19 09:28:16;;;;;;;6.43;1.50;;;13.90;99.90;;;;;;5000101;28;20202;-65
2022/09/19 09:30:49;;;;;;;8.82;1.90;;;13.60;99.90;;;;;;4971948;28;20253;-65
2022/09/19 09:33:23;;;;;;;12.00;2.22;;;13.60;99.90;;;;;;4999550;28;20226;-65
2022/09/19 09:35:54;;;;;;;6.07;1.83;;;13.50;99.90;;;;;;5008781;28;20198;-64
2022/09/19 09:38:29;;;;;;;9.95;2.08;;;16.40;99.90;;;;;;4974105;28;20210;-65
2022/09/19 09:44:08;;;;;;;6.55;1.50;;;14.00;99.90;;;;;;4936520;28;20330;-65
2022/09/19 09:46:54;;;;;;;9.07;2.05;;;13.90;99.90;;;;;;4951535;28;20222;-65
2022/09/19 09:49:22;;;;;;;13.73;1.75;;;13.70;99.90;;;;;;4987524;28;20222;-65
2022/09/19 09:51:57;;;;;;;9.70;1.83;;;14.30;99.90;;;;;;4989910;28;20283;-64
2022/09/19 09:57:36;;;;;;;9.77;2.30;;;15.00;99.90;;;;;;4981042;28;20215;-65
2022/09/19 10:05:52;;;;;;;15.98;3.20;;;15.00;99.90;;;;;;5007372;28;20205;-65
2022/09/19 10:08:22;;;;;;;10.95;2.67;;;14.90;99.90;;;;;;5001437;28;20226;-65
2022/09/19 10:10:53;;;;;;;12.52;2.25;;;14.70;99.90;;;;;;4975179;28;20238;-65
2022/09/19 10:13:26;;;;;;;22.02;3.10;;;14.70;99.90;;;;;;4985268;28;20232;-65
2022/09/19 10:15:56;;;;;;;10.30;2.60;;;15.00;99.90;;;;;;4981384;28;20653;-65
2022/09/19 10:18:29;;;;;;;8.95;2.50;;;15.00;99.90;;;;;;4969636;28;20227;-64
2022/09/19 10:20:57;;;;;;;19.38;2.67;;;15.40;99.90;;;;;;4997640;28;20222;-66
2022/09/19 10:23:25;;;;;;;8.98;1.77;;;15.20;99.90;;;;;;5006645;28;20228;-65
2022/09/19 10:26:00;;;;;;;12.38;1.90;;;15.30;99.90;;;;;;4962954;28;20697;-65
2022/09/19 10:28:30;;;;;;;11.05;1.92;;;15.30;99.90;;;;;;4992899;28;20236;-65
2022/09/19 10:30:59;;;;;;;13.02;2.10;;;15.40;99.90;;;;;;4985436;28;20799;-65
2022/09/19 10:33:38;;;;;;;13.65;2.50;;;15.40;99.10;;;;;;4976983;28;20665;-65
2022/09/19 10:36:08;;;;;;;10.35;2.25;;;15.40;95.00;;;;;;4979211;28;20533;-65
2022/09/19 10:38:56;;;;;;;10.73;2.28;;;15.20;90.90;;;;;;4998958;28;20210;-65
2022/09/19 10:41:25;;;;;;;12.43;1.80;;;15.10;87.80;;;;;;4974945;28;20230;-65
2022/09/19 10:43:54;;;;;;;11.10;2.40;;;15.40;96.10;;;;;;4980868;28;20233;-65
2022/09/19 10:46:23;;;;;;;9.75;2.10;;;15.20;86.90;;;;;;4987709;28;20221;-64
2022/09/19 10:48:55;;;;;;;9.23;1.63;;;15.20;87.20;;;;;;4979236;28;20276;-64
2022/09/19 10:51:23;;;;;;;16.60;2.85;;;15.10;82.70;;;;;;4979792;28;20209;-65
2022/09/19 10:53:55;;;;;;;6.75;1.67;;;;;;;;;;4991424;28;20623;-64
2022/09/19 10:56:26;;;;;;;8.95;1.77;;;15.50;85.40;;;;;;4970837;28;20293;-65
2022/09/19 10:59:01;;;;;;;6.15;2.25;;;15.20;82.20;;;;;;4979115;28;20324;-64
2022/09/19 11:01:28;;;;;;;8.60;1.95;;;15.60;61.90;;;;;;4994329;28;21056;-64
2022/09/19 11:04:02;;;;;;;5.47;1.45;;;15.50;72.30;;;;;;4978853;28;20244;-64
2022/09/19 11:06:30;;;;;;;10.98;2.35;;;15.40;67.80;;;;;;4974731;28;20227;-64
2022/09/19 11:08:58;;;;;;;8.98;1.80;;;15.60;77.10;;;;;;5001155;28;20222;-65
2022/09/19 11:11:45;;;;;;;11.48;2.47;;;15.90;71.20;;;;;;4995521;28;20974;-65
2022/09/19 11:14:26;;;;;;;11.75;2.13;;;15.60;77.10;;;;;;4977287;28;20714;-64
2022/09/19 11:17:20;;;;;;;11.70;2.03;;;15.70;80.90;;;;;;4995837;28;20316;-64
2022/09/19 11:20:18;;;;;;;8.48;1.83;;;15.80;82.80;;;;;;4958013;28;20226;-65
2022/09/19 11:23:05;;;;;;;9.38;2.30;;;15.60;56.90;;;;;;4960701;28;20226;-65
2022/09/19 11:25:37;;;;;;;9.13;2.20;;;15.60;55.40;;;;;;4998814;28;20232;-65
2022/09/19 11:28:16;;;;;;;9.50;2.03;;;15.70;58.20;;;;;;4984611;28;20234;-65
2022/09/19 11:30:52;;;;;;;12.80;2.00;;;15.80;61.70;;;;;;5006826;28;20198;-65
2022/09/19 11:33:47;;;;;;;12.23;2.28;;;15.80;58.40;;;;;;5011049;28;20210;-65
2022/09/19 11:36:28;;;;;;;10.20;2.17;;;15.80;64.60;;;;;;4994605;28;20574;-64
2022/09/19 11:39:00;;;;;;;8.93;1.55;;;15.70;58.80;;;;;;4974361;28;20236;-64
2022/09/19 11:41:37;;;;;;;11.90;2.00;;;15.70;49.30;;;;;;4986611;28;20222;-63
2022/09/19 11:44:22;;;;;;;10.48;2.00;;;15.70;54.60;;;;;;4982842;28;20659;-64
2022/09/19 11:46:56;;;;;;;13.60;2.47;;;15.60;71.30;;;;;;5002845;28;20419;-64
2022/09/19 11:49:51;;;;;;;13.27;2.47;;;15.70;71.60;;;;;;4989440;28;20694;-63
2022/09/19 11:52:29;;;;;;;13.90;1.85;;;15.60;62.80;;;;;;4960580;28;20230;-63
2022/09/19 11:55:17;;;;;;;10.90;2.88;;;16.00;69.90;;;;;;4980435;28;20225;-64
2022/09/19 11:57:50;;;;;;;13.88;2.53;;;15.60;67.80;;;;;;4977053;28;20604;-63
2022/09/19 12:00:20;;;;;;;8.10;2.03;;;15.60;66.30;;;;;;4939831;28;20221;-63
2022/09/19 12:03:10;;;;;;;7.88;1.90;;;15.60;60.30;;;;;;4953821;28;20221;-63
2022/09/19 12:05:52;;;;;;;8.93;1.77;;;15.50;56.90;;;;;;4984040;28;20234;-63
2022/09/19 12:08:30;;;;;;;8.90;1.88;;;15.40;58.50;;;;;;4952779;28;20241;-63
2022/09/19 12:11:05;;;;;;;13.82;2.20;;;15.40;66.30;;;;;;4988824;28;20425;-63
2022/09/19 12:13:42;;;;;;;10.63;2.70;;;15.40;58.00;;;;;;4984064;28;20291;-63
2022/09/19 12:16:15;;;;;;;11.68;2.72;;;15.30;65.50;;;;;;4974380;28;20225;-63
2022/09/19 12:18:49;;;;;;;16.08;3.28;;;15.50;53.00;;;;;;4968801;28;20707;-64
2022/09/19 12:21:19;;;;;;;15.25;2.60;;;15.50;55.50;;;;;;4971535;28;20320;-63
2022/09/19 12:26:49;;;;;;;7.88;3.08;;;16.50;51.10;;;;;;4984201;28;20353;-63
2022/09/19 12:29:23;;;;;;;15.68;2.70;;;15.50;51.10;;;;;;4999806;28;20236;-63
2022/09/19 12:31:56;;;;;;;11.35;2.25;;;16.60;55.50;;;;;;4953162;28;20975;-63
2022/09/19 12:34:32;;;;;;;9.43;2.20;;;15.50;53.60;;;;;;4998972;28;20334;-63
2022/09/19 12:37:04;;;;;;;10.20;1.85;;;17.60;38.40;;;;;;4961512;28;21194;-63
2022/09/19 12:39:38;;;;;;;7.10;2.13;;;15.60;34.70;;;;;;4982886;28;20209;-63
2022/09/19 12:42:10;;;;;;;8.15;2.13;;;15.60;41.90;;;;;;5000424;28;21810;-63
2022/09/19 12:44:43;;;;;;;6.93;1.67;;;15.70;22.90;;;;;;4969003;28;20250;-63
2022/09/19 12:47:21;;;;;;;11.73;2.33;;;15.60;24.50;;;;;;4967654;28;20299;-63
2022/09/19 12:53:23;;;;;;;5.60;1.98;;;16.40;38.40;;;;;;4950723;22;20334;-63
2022/09/19 12:55:59;;;;;;;5.38;1.52;;;15.90;28.60;;;;;;4945757;28;20229;-63
2022/09/19 12:58:28;;;;;;;7.18;2.22;;;15.80;45.00;;;;;;4945211;28;21009;-63
2022/09/19 13:01:14;;;;;;;4.85;1.27;;;15.80;41.30;;;;;;4940355;28;20231;-63
2022/09/19 13:03:47;;;;;;;10.52;1.45;;;15.70;3.70;;;;;;4931553;28;20291;-63
2022/09/19 13:06:20;;;;;;;9.27;1.90;;;15.90;13.60;;;;;;4924290;28;20231;-63
2022/09/19 13:08:53;;;;;;;9.15;2.60;;;15.80;16.30;;;;;;4897666;28;20231;-63
2022/09/19 13:11:25;;;;;;;6.57;1.83;;;15.80;8.80;;;;;;4931804;28;20226;-62
2022/09/19 13:13:57;;;;;;;9.43;1.48;;;15.80;1.00;;;;;;4952193;28;20265;-62
2022/09/19 13:16:29;;;;;;;7.90;1.45;;;15.70;1.00;;;;;;4917804;28;20224;-63
2022/09/19 13:24:38;;;;;;;10.27;1.80;;;15.70;8.20;;;;;;4911392;28;20811;-63
2022/09/19 13:27:07;;;;;;;14.93;2.40;;;;;;;;;;4992371;22;20240;-63
2022/09/19 13:29:49;;;;;;;4.70;1.48;;;15.70;8.80;;;;;;5011064;28;26551;-63
2022/09/19 13:32:34;;;;;;;2.40;1.17;;;15.70;1.00;;;;;;4989536;28;20249;-63
2022/09/19 13:35:14;;;;;;;8.13;1.77;;;15.80;1.00;;;;;;5013714;28;20256;-63
2022/09/19 13:38:16;;;;;;;3.38;1.30;;;15.50;1.00;;;;;;5007266;28;20232;-64
2022/09/19 13:40:50;;;;;;;7.72;1.52;;;15.60;1.00;;;;;;4974385;28;20228;-63
2022/09/19 13:43:31;;;;;;;8.02;1.85;;;15.50;1.00;;;;;;5012545;28;20213;-63
2022/09/19 13:46:05;;;;;;;10.77;1.77;;;15.40;1.00;;;;;;5010470;28;20233;-62